Time,TemperatureF,DewpointF,PressureIn,WindDirection,WindDirectionDegrees,WindSpeedMPH,WindSpeedGustMPH,Humidity,HourlyPrecipIn,Conditions,Clouds,dailyrainin,SoftwareType,DateUTC
2013-03-26 00:22:00,57.0,33.0,29.96,North,-999,0.0,0.0,40,0.00,,,-99.99,,2013-03-26 07:22:00,
2013-03-26 00:32:00,57.0,33.0,29.96,North,-999,0.0,0.0,40,0.00,,,-99.99,,2013-03-26 07:32:00,
2013-03-26 00:42:00,57.0,33.0,29.96,North,-999,0.0,0.0,40,0.00,,,-99.99,,2013-03-26 07:42:00,
2013-03-26 01:22:00,57.0,33.0,29.96,North,0,0.0,6.0,40,0.00,,,-99.99,,2013-03-26 08:22:00,
2013-03-26 01:32:00,57.0,33.0,29.96,North,0,0.0,6.0,40,0.00,,,-99.99,,2013-03-26 08:32:00,
2013-03-26 01:42:00,57.0,33.0,29.96,North,0,0.0,6.0,40,0.00,,,-99.99,,2013-03-26 08:42:00,
2013-03-26 02:22:00,57.0,32.0,29.95,North,0,0.0,6.0,38,0.00,,,-99.99,,2013-03-26 09:22:00,
2013-03-26 02:32:00,57.0,32.0,29.95,North,0,0.0,6.0,38,0.00,,,-99.99,,2013-03-26 09:32:00,
2013-03-26 02:42:00,57.0,32.0,29.95,North,0,0.0,6.0,38,0.00,,,-99.99,,2013-03-26 09:42:00,
2013-03-26 03:22:00,56.0,31.0,29.93,North,0,0.0,9.0,39,0.00,,,-99.99,,2013-03-26 10:22:00,
2013-03-26 03:32:00,56.0,31.0,29.93,North,0,0.0,9.0,39,0.00,,,-99.99,,2013-03-26 10:32:00,
2013-03-26 03:42:00,56.0,31.0,29.93,North,0,0.0,9.0,39,0.00,,,-99.99,,2013-03-26 10:42:00,
2013-03-26 04:22:00,55.0,31.0,29.92,North,0,0.0,8.0,40,0.00,,,-99.99,,2013-03-26 11:22:00,
2013-03-26 04:32:00,55.0,31.0,29.92,North,0,0.0,8.0,40,0.00,,,-99.99,,2013-03-26 11:32:00,
2013-03-26 04:42:00,55.0,31.0,29.92,North,0,0.0,8.0,40,0.00,,,-99.99,,2013-03-26 11:42:00,
2013-03-26 05:22:00,53.0,33.0,29.92,North,-999,0.0,0.0,47,0.00,,,-99.99,,2013-03-26 12:22:00,
2013-03-26 05:32:00,53.0,33.0,29.92,North,-999,0.0,0.0,47,0.00,,,-99.99,,2013-03-26 12:32:00,
2013-03-26 05:42:00,53.0,33.0,29.92,North,-999,0.0,0.0,47,0.00,,,-99.99,,2013-03-26 12:42:00,
2013-03-26 06:22:00,54.0,31.0,29.92,North,-999,0.0,0.0,41,0.00,,,-99.99,,2013-03-26 13:22:00,
2013-03-26 06:32:00,54.0,31.0,29.92,North,-999,0.0,0.0,41,0.00,,,-99.99,,2013-03-26 13:32:00,
2013-03-26 06:42:00,54.0,31.0,29.92,North,-999,0.0,0.0,41,0.00,,,-99.99,,2013-03-26 13:42:00,
2013-03-26 07:22:00,52.0,30.0,29.93,North,-999,0.0,0.0,43,0.00,,,-99.99,,2013-03-26 14:22:00,
2013-03-26 07:32:00,52.0,30.0,29.93,North,-999,0.0,0.0,43,0.00,,,-99.99,,2013-03-26 14:32:00,
2013-03-26 07:42:00,52.0,30.0,29.93,North,-999,0.0,0.0,43,0.00,,,-99.99,,2013-03-26 14:42:00,
2013-03-26 08:22:00,53.0,29.0,29.93,North,0,0.0,4.0,39,0.00,,,-99.99,,2013-03-26 15:22:00,
2013-03-26 08:33:00,53.0,29.0,29.93,North,0,0.0,4.0,39,0.00,,,-99.99,,2013-03-26 15:33:00,
2013-03-26 08:42:00,53.0,29.0,29.93,North,0,0.0,4.0,39,0.00,,,-99.99,,2013-03-26 15:42:00,
2013-03-26 09:22:00,62.0,29.0,29.94,North,0,0.0,1.0,29,0.00,,,-99.99,,2013-03-26 16:22:00,
2013-03-26 09:32:00,62.0,29.0,29.94,North,0,0.0,1.0,29,0.00,,,-99.99,,2013-03-26 16:32:00,
2013-03-26 09:42:00,62.0,29.0,29.94,North,0,0.0,1.0,29,0.00,,,-99.99,,2013-03-26 16:42:00,
2013-03-26 10:22:00,65.0,29.0,29.95,North,-999,0.0,0.0,26,0.00,,,-99.99,,2013-03-26 17:22:00,
2013-03-26 10:32:00,65.0,29.0,29.95,North,-999,0.0,0.0,26,0.00,,,-99.99,,2013-03-26 17:32:00,
2013-03-26 10:42:00,65.0,29.0,29.95,North,-999,0.0,0.0,26,0.00,,,-99.99,,2013-03-26 17:42:00,
2013-03-26 11:23:00,66.0,36.0,29.95,North,0,0.0,10.0,33,0.00,,,-99.99,,2013-03-26 18:23:00,
2013-03-26 11:33:00,66.0,36.0,29.95,North,0,0.0,10.0,33,0.00,,,-99.99,,2013-03-26 18:33:00,
2013-03-26 11:42:00,66.0,36.0,29.95,North,0,0.0,10.0,33,0.00,,,-99.99,,2013-03-26 18:42:00,
2013-03-26 12:22:00,70.0,34.0,29.94,North,0,0.0,9.0,26,0.00,,,-99.99,,2013-03-26 19:22:00,
2013-03-26 12:32:00,70.0,34.0,29.94,North,0,0.0,9.0,26,0.00,,,-99.99,,2013-03-26 19:32:00,
2013-03-26 12:42:00,70.0,34.0,29.94,North,0,0.0,9.0,26,0.00,,,-99.99,,2013-03-26 19:42:00,
2013-03-26 13:22:00,73.0,26.0,29.94,WSW,250,1.0,17.0,17,0.00,,,-99.99,,2013-03-26 20:22:00,
2013-03-26 13:32:00,73.0,26.0,29.94,WSW,250,1.0,17.0,17,0.00,,,-99.99,,2013-03-26 20:32:00,
2013-03-26 13:42:00,73.0,26.0,29.94,WSW,250,1.0,17.0,17,0.00,,,-99.99,,2013-03-26 20:42:00,
2013-03-26 14:22:00,73.0,24.0,29.93,WSW,240,5.0,20.0,16,0.00,,,-99.99,,2013-03-26 21:22:00,
2013-03-26 14:32:00,73.0,24.0,29.93,WSW,240,5.0,20.0,16,0.00,,,-99.99,,2013-03-26 21:32:00,
2013-03-26 14:42:00,73.0,24.0,29.93,WSW,240,5.0,20.0,16,0.00,,,-99.99,,2013-03-26 21:42:00,
2013-03-26 15:22:00,73.0,21.0,29.92,North,0,0.0,17.0,14,0.00,,,-99.99,,2013-03-26 22:22:00,
2013-03-26 15:33:00,73.0,21.0,29.92,North,0,0.0,17.0,14,0.00,,,-99.99,,2013-03-26 22:33:00,
2013-03-26 15:42:00,73.0,21.0,29.92,North,0,0.0,17.0,14,0.00,,,-99.99,,2013-03-26 22:42:00,
2013-03-26 16:22:00,74.0,22.0,29.91,North,0,0.0,17.0,14,0.00,,,-99.99,,2013-03-26 23:22:00,
2013-03-26 16:32:00,74.0,22.0,29.91,North,0,0.0,17.0,14,0.00,,,-99.99,,2013-03-26 23:32:00,
2013-03-26 16:42:00,74.0,22.0,29.91,North,0,0.0,17.0,14,0.00,,,-99.99,,2013-03-26 23:42:00,
2013-03-26 17:22:00,73.0,24.0,29.89,SW,220,2.0,13.0,16,0.00,,,-99.99,,2013-03-27 00:22:00,
2013-03-26 17:32:00,73.0,24.0,29.89,SW,220,2.0,13.0,16,0.00,,,-99.99,,2013-03-27 00:32:00,
2013-03-26 17:42:00,73.0,24.0,29.89,SW,220,2.0,13.0,16,0.00,,,-99.99,,2013-03-27 00:42:00,
2013-03-26 18:22:00,69.0,27.0,29.89,South,190,2.0,17.0,21,0.00,,,-99.99,,2013-03-27 01:22:00,
2013-03-26 18:32:00,69.0,27.0,29.89,South,190,2.0,17.0,21,0.00,,,-99.99,,2013-03-27 01:32:00,
2013-03-26 18:42:00,69.0,27.0,29.89,South,190,2.0,17.0,21,0.00,,,-99.99,,2013-03-27 01:42:00,
2013-03-26 19:22:00,65.0,23.0,29.91,North,0,0.0,10.0,20,0.00,,,-99.99,,2013-03-27 02:22:00,
2013-03-26 19:32:00,65.0,23.0,29.91,North,0,0.0,10.0,20,0.00,,,-99.99,,2013-03-27 02:32:00,
2013-03-26 19:42:00,65.0,23.0,29.91,North,0,0.0,10.0,20,0.00,,,-99.99,,2013-03-27 02:42:00,
2013-03-26 20:22:00,62.0,9.0,29.92,North,0,0.0,9.0,12,0.00,,,-99.99,,2013-03-27 03:22:00,
2013-03-26 20:33:00,62.0,9.0,29.92,North,0,0.0,9.0,12,0.00,,,-99.99,,2013-03-27 03:33:00,
2013-03-26 21:23:00,58.0,18.0,29.94,North,-999,0.0,0.0,21,0.00,,,-99.99,,2013-03-27 04:23:00,
2013-03-26 21:33:00,58.0,18.0,29.94,North,-999,0.0,0.0,21,0.00,,,-99.99,,2013-03-27 04:33:00,
2013-03-26 21:42:00,58.0,18.0,29.94,North,-999,0.0,0.0,21,0.00,,,-99.99,,2013-03-27 04:42:00,
2013-03-26 22:22:00,55.0,25.0,29.95,North,-999,0.0,0.0,31,0.00,,,-99.99,,2013-03-27 05:22:00,
2013-03-26 22:32:00,55.0,25.0,29.95,North,-999,0.0,0.0,31,0.00,,,-99.99,,2013-03-27 05:32:00,
2013-03-26 22:42:00,55.0,25.0,29.95,North,-999,0.0,0.0,31,0.00,,,-99.99,,2013-03-27 05:42:00,
2013-03-26 23:22:00,54.0,24.0,29.96,North,-999,0.0,0.0,31,0.00,,,-99.99,,2013-03-27 06:22:00,
2013-03-26 23:32:00,54.0,24.0,29.96,North,-999,0.0,0.0,31,0.00,,,-99.99,,2013-03-27 06:32:00,
2013-03-26 23:42:00,54.0,24.0,29.96,North,-999,0.0,0.0,31,0.00,,,-99.99,,2013-03-27 06:42:00,